sensor_id;sensor_type;location;lat;lon;timestamp;pressure;altitude;pressure_sealevel;temperature;humidity
6567;BME280;3317;43.994;22.878;2023-04-23T00:01:55;101048.78;;;14.15;60.32
6567;BME280;3317;43.994;22.878;2023-04-23T00:04:25;101060.69;;;14.22;60.14
6567;BME280;3317;43.994;22.878;2023-04-23T00:06:54;101059.19;;;14.20;60.67
6567;BME280;3317;43.994;22.878;2023-04-23T00:09:21;101059.84;;;14.22;60.70
6567;BME280;3317;43.994;22.878;2023-04-23T00:11:49;101064.63;;;14.20;60.88
6567;BME280;3317;43.994;22.878;2023-04-23T00:14:18;101062.75;;;14.20;59.67
6567;BME280;3317;43.994;22.878;2023-04-23T00:16:45;101054.75;;;14.19;59.58
6567;BME280;3317;43.994;22.878;2023-04-23T00:19:12;101062.41;;;14.23;59.57
6567;BME280;3317;43.994;22.878;2023-04-23T00:21:39;101064.44;;;14.21;58.63
6567;BME280;3317;43.994;22.878;2023-04-23T00:24:06;101058.66;;;14.16;58.38
6567;BME280;3317;43.994;22.878;2023-04-23T00:26:33;101060.34;;;14.17;59.63
6567;BME280;3317;43.994;22.878;2023-04-23T00:29:00;101055.06;;;14.16;59.80
6567;BME280;3317;43.994;22.878;2023-04-23T00:31:29;101065.13;;;14.15;60.35
6567;BME280;3317;43.994;22.878;2023-04-23T00:33:56;101051.34;;;14.08;59.50
6567;BME280;3317;43.994;22.878;2023-04-23T00:36:22;101048.59;;;14.08;59.31
6567;BME280;3317;43.994;22.878;2023-04-23T00:38:50;101065.13;;;14.15;58.77
6567;BME280;3317;43.994;22.878;2023-04-23T00:41:18;101058.28;;;14.11;59.22
6567;BME280;3317;43.994;22.878;2023-04-23T00:43:45;101013.69;;;13.87;58.81
6567;BME280;3317;43.994;22.878;2023-04-23T00:46:13;101056.97;;;14.15;59.45
6567;BME280;3317;43.994;22.878;2023-04-23T00:48:43;101059.00;;;14.13;59.79
6567;BME280;3317;43.994;22.878;2023-04-23T00:51:10;101055.41;;;14.13;58.74
6567;BME280;3317;43.994;22.878;2023-04-23T00:53:37;101060.03;;;14.12;57.92
6567;BME280;3317;43.994;22.878;2023-04-23T00:56:05;101056.28;;;14.13;58.62
6567;BME280;3317;43.994;22.878;2023-04-23T00:58:33;101058.81;;;14.15;58.25
6567;BME280;3317;43.994;22.878;2023-04-23T01:01:00;101059.69;;;14.15;57.92
6567;BME280;3317;43.994;22.878;2023-04-23T01:03:29;101057.31;;;14.12;59.01
6567;BME280;3317;43.994;22.878;2023-04-23T01:05:58;101003.44;;;13.81;59.46
6567;BME280;3317;43.994;22.878;2023-04-23T01:08:25;101049.78;;;14.06;59.71
6567;BME280;3317;43.994;22.878;2023-04-23T01:10:52;101056.41;;;14.03;59.89
6567;BME280;3317;43.994;22.878;2023-04-23T01:13:20;101052.34;;;13.99;60.18
6567;BME280;3317;43.994;22.878;2023-04-23T01:15:47;101048.06;;;13.97;60.27
6567;BME280;3317;43.994;22.878;2023-04-23T01:18:15;101032.25;;;13.84;60.05
6567;BME280;3317;43.994;22.878;2023-04-23T01:20:44;101048.75;;;13.90;59.86
6567;BME280;3317;43.994;22.878;2023-04-23T01:23:12;101049.94;;;13.88;60.05
6567;BME280;3317;43.994;22.878;2023-04-23T01:25:39;101056.75;;;13.84;59.70
6567;BME280;3317;43.994;22.878;2023-04-23T01:28:06;101048.22;;;13.78;59.82
6567;BME280;3317;43.994;22.878;2023-04-23T01:30:34;101045.16;;;13.73;59.96
6567;BME280;3317;43.994;22.878;2023-04-23T01:33:02;101055.91;;;13.75;59.85
6567;BME280;3317;43.994;22.878;2023-04-23T01:35:30;101045.66;;;13.69;59.75
6567;BME280;3317;43.994;22.878;2023-04-23T01:37:58;101057.06;;;13.72;59.85
6567;BME280;3317;43.994;22.878;2023-04-23T01:40:27;101057.22;;;13.71;60.00
6567;BME280;3317;43.994;22.878;2023-04-23T01:42:55;101051.97;;;13.69;59.93
6567;BME280;3317;43.994;22.878;2023-04-23T01:45:22;101052.97;;;13.68;59.98
6567;BME280;3317;43.994;22.878;2023-04-23T01:47:49;101055.88;;;13.66;60.40
6567;BME280;3317;43.994;22.878;2023-04-23T01:50:16;101052.47;;;13.64;60.06
6567;BME280;3317;43.994;22.878;2023-04-23T01:52:43;100996.50;;;13.27;59.99
6567;BME280;3317;43.994;22.878;2023-04-23T01:55:10;101055.34;;;13.63;60.15
6567;BME280;3317;43.994;22.878;2023-04-23T01:57:40;101055.53;;;13.61;60.01
6567;BME280;3317;43.994;22.878;2023-04-23T02:00:09;101050.38;;;13.58;60.01
6567;BME280;3317;43.994;22.878;2023-04-23T02:02:38;101055.34;;;13.55;60.49
6567;BME280;3317;43.994;22.878;2023-04-23T02:05:09;101060.06;;;13.52;60.96
6567;BME280;3317;43.994;22.878;2023-04-23T02:07:37;101045.88;;;13.41;60.94
6567;BME280;3317;43.994;22.878;2023-04-23T02:10:05;101061.44;;;13.48;60.63
6567;BME280;3317;43.994;22.878;2023-04-23T02:12:32;101061.59;;;13.47;61.11
6567;BME280;3317;43.994;22.878;2023-04-23T02:15:01;101051.19;;;13.42;61.09
6567;BME280;3317;43.994;22.878;2023-04-23T02:17:28;101052.72;;;13.45;61.11
6567;BME280;3317;43.994;22.878;2023-04-23T02:19:55;101060.19;;;13.43;61.39
6567;BME280;3317;43.994;22.878;2023-04-23T02:22:22;101059.50;;;13.41;61.16
6567;BME280;3317;43.994;22.878;2023-04-23T02:24:51;101054.06;;;13.41;61.24
6567;BME280;3317;43.994;22.878;2023-04-23T02:27:18;101054.06;;;13.41;61.04
6567;BME280;3317;43.994;22.878;2023-04-23T02:29:45;101045.34;;;13.37;61.25
6567;BME280;3317;43.994;22.878;2023-04-23T02:32:14;101043.13;;;13.32;61.26
6567;BME280;3317;43.994;22.878;2023-04-23T02:34:42;101054.22;;;13.39;61.18
6567;BME280;3317;43.994;22.878;2023-04-23T02:37:09;101063.25;;;13.40;61.38
6567;BME280;3317;43.994;22.878;2023-04-23T02:39:36;101048.56;;;13.32;61.32
6567;BME280;3317;43.994;22.878;2023-04-23T02:42:04;101043.13;;;13.32;61.58
6567;BME280;3317;43.994;22.878;2023-04-23T02:44:31;101051.00;;;13.35;61.90
6567;BME280;3317;43.994;22.878;2023-04-23T02:46:58;101056.44;;;13.35;61.84
6567;BME280;3317;43.994;22.878;2023-04-23T02:49:26;101060.31;;;13.33;62.15
6567;BME280;3317;43.994;22.878;2023-04-23T02:51:53;101049.09;;;13.28;62.16
6567;BME280;3317;43.994;22.878;2023-04-23T02:54:20;101059.78;;;13.29;62.61
6567;BME280;3317;43.994;22.878;2023-04-23T02:56:48;101052.78;;;13.27;62.20
6567;BME280;3317;43.994;22.878;2023-04-23T02:59:15;101058.44;;;13.25;62.35
6567;BME280;3317;43.994;22.878;2023-04-23T03:01:42;101054.84;;;13.24;62.23
6567;BME280;3317;43.994;22.878;2023-04-23T03:04:09;101064.19;;;13.22;62.85
6567;BME280;3317;43.994;22.878;2023-04-23T03:06:38;101061.63;;;13.20;63.01
6567;BME280;3317;43.994;22.878;2023-04-23T03:09:06;101055.66;;;13.17;62.86
6567;BME280;3317;43.994;22.878;2023-04-23T03:11:33;101056.53;;;13.17;62.75
6567;BME280;3317;43.994;22.878;2023-04-23T03:14:00;101058.56;;;13.15;62.77
6567;BME280;3317;43.994;22.878;2023-04-23T03:16:27;101064.00;;;13.15;62.78
6567;BME280;3317;43.994;22.878;2023-04-23T03:18:56;101068.91;;;13.12;62.89
6567;BME280;3317;43.994;22.878;2023-04-23T03:21:23;101067.22;;;13.10;62.50
6567;BME280;3317;43.994;22.878;2023-04-23T03:23:51;101060.69;;;13.03;62.51
6567;BME280;3317;43.994;22.878;2023-04-23T03:26:18;101063.28;;;13.05;62.75
6567;BME280;3317;43.994;22.878;2023-04-23T03:28:45;101062.72;;;13.01;63.01
6567;BME280;3317;43.994;22.878;2023-04-23T03:31:12;101057.44;;;13.00;63.16
6567;BME280;3317;43.994;22.878;2023-04-23T03:33:39;101065.09;;;12.96;62.93
6567;BME280;3317;43.994;22.878;2023-04-23T03:36:06;101071.38;;;12.96;63.31
6567;BME280;3317;43.994;22.878;2023-04-23T03:38:33;101071.56;;;12.95;63.21
6567;BME280;3317;43.994;22.878;2023-04-23T03:41:01;101067.09;;;12.94;63.29
6567;BME280;3317;43.994;22.878;2023-04-23T03:43:28;101062.69;;;12.93;63.18
6567;BME280;3317;43.994;22.878;2023-04-23T03:45:55;101070.34;;;12.89;63.06
6567;BME280;3317;43.994;22.878;2023-04-23T03:48:22;101070.34;;;12.89;62.96
6567;BME280;3317;43.994;22.878;2023-04-23T03:50:49;101076.59;;;12.90;62.64
6567;BME280;3317;43.994;22.878;2023-04-23T03:53:16;101065.03;;;12.88;62.98
6567;BME280;3317;43.994;22.878;2023-04-23T03:55:43;101077.63;;;12.89;62.90
6567;BME280;3317;43.994;22.878;2023-04-23T03:58:11;101057.84;;;12.78;62.71
6567;BME280;3317;43.994;22.878;2023-04-23T04:00:38;101086.81;;;12.88;62.80
6567;BME280;3317;43.994;22.878;2023-04-23T04:03:05;101084.09;;;12.88;63.31
6567;BME280;3317;43.994;22.878;2023-04-23T04:05:32;101083.41;;;12.86;62.47
6567;BME280;3317;43.994;22.878;2023-04-23T04:07:59;101089.53;;;12.88;60.77
6567;BME280;3317;43.994;22.878;2023-04-23T04:10:27;101087.81;;;12.87;59.88
6567;BME280;3317;43.994;22.878;2023-04-23T04:12:54;101089.84;;;12.85;61.55
6567;BME280;3317;43.994;22.878;2023-04-23T04:15:23;101090.69;;;12.85;62.96
6567;BME280;3317;43.994;22.878;2023-04-23T04:17:50;101091.69;;;12.84;61.68
6567;BME280;3317;43.994;22.878;2023-04-23T04:20:17;101097.00;;;12.86;61.20
6567;BME280;3317;43.994;22.878;2023-04-23T04:22:44;101095.28;;;12.85;62.34
6567;BME280;3317;43.994;22.878;2023-04-23T04:25:11;101101.56;;;12.85;62.90
6567;BME280;3317;43.994;22.878;2023-04-23T04:27:38;101104.28;;;12.85;61.94
6567;BME280;3317;43.994;22.878;2023-04-23T04:30:07;101098.31;;;12.81;60.36
6567;BME280;3317;43.994;22.878;2023-04-23T04:32:35;101109.56;;;12.87;61.52
6567;BME280;3317;43.994;22.878;2023-04-23T04:35:03;101101.34;;;12.78;61.71
6567;BME280;3317;43.994;22.878;2023-04-23T04:37:30;101114.69;;;12.90;60.75
6567;BME280;3317;43.994;22.878;2023-04-23T04:39:58;101110.13;;;12.90;60.35
6567;BME280;3317;43.994;22.878;2023-04-23T04:42:25;101112.50;;;12.93;60.89
6567;BME280;3317;43.994;22.878;2023-04-23T04:44:52;101096.50;;;12.90;62.47
6567;BME280;3317;43.994;22.878;2023-04-23T04:47:22;101105.72;;;12.98;63.41
6567;BME280;3317;43.994;22.878;2023-04-23T04:49:51;101107.97;;;13.02;61.99
6567;BME280;3317;43.994;22.878;2023-04-23T04:52:21;101109.34;;;13.06;62.30
6567;BME280;3317;43.994;22.878;2023-04-23T04:54:48;101111.44;;;13.13;62.98
6567;BME280;3317;43.994;22.878;2023-04-23T04:57:15;101023.41;;;12.61;63.12
6567;BME280;3317;43.994;22.878;2023-04-23T04:59:43;101125.44;;;13.26;63.67
6567;BME280;3317;43.994;22.878;2023-04-23T05:02:11;101121.03;;;13.33;61.98
6567;BME280;3317;43.994;22.878;2023-04-23T05:04:38;101108.44;;;13.32;61.85
6567;BME280;3317;43.994;22.878;2023-04-23T05:07:07;101121.09;;;13.42;62.32
6567;BME280;3317;43.994;22.878;2023-04-23T05:09:34;101118.59;;;13.48;63.03
6567;BME280;3317;43.994;22.878;2023-04-23T05:12:01;101122.88;;;13.59;63.06
6567;BME280;3317;43.994;22.878;2023-04-23T05:14:28;101124.97;;;13.65;62.34
6567;BME280;3317;43.994;22.878;2023-04-23T05:16:56;101120.06;;;13.69;62.58
6567;BME280;3317;43.994;22.878;2023-04-23T05:19:23;101124.66;;;13.77;62.35
6567;BME280;3317;43.994;22.878;2023-04-23T05:21:50;101125.53;;;13.86;62.66
6567;BME280;3317;43.994;22.878;2023-04-23T05:24:19;101125.03;;;13.90;61.89
6567;BME280;3317;43.994;22.878;2023-04-23T05:26:45;101124.22;;;13.98;61.43
6567;BME280;3317;43.994;22.878;2023-04-23T05:29:12;101124.22;;;13.98;61.85
6567;BME280;3317;43.994;22.878;2023-04-23T05:31:44;101126.09;;;14.06;62.49
6567;BME280;3317;43.994;22.878;2023-04-23T05:34:11;101139.41;;;14.17;62.60
6567;BME280;3317;43.994;22.878;2023-04-23T05:36:38;101130.53;;;14.23;62.37
6567;BME280;3317;43.994;22.878;2023-04-23T05:39:05;101132.59;;;14.30;62.52
6567;BME280;3317;43.994;22.878;2023-04-23T05:41:34;101140.81;;;14.38;61.74
6567;BME280;3317;43.994;22.878;2023-04-23T05:44:01;101146.91;;;14.48;61.39
6567;BME280;3317;43.994;22.878;2023-04-23T05:46:28;101151.53;;;14.56;61.32
6567;BME280;3317;43.994;22.878;2023-04-23T05:48:55;101146.44;;;14.61;60.81
6567;BME280;3317;43.994;22.878;2023-04-23T05:51:22;101139.59;;;14.65;60.92
6567;BME280;3317;43.994;22.878;2023-04-23T05:53:49;101158.22;;;14.78;60.31
6567;BME280;3317;43.994;22.878;2023-04-23T05:56:16;101160.25;;;14.85;60.48
6567;BME280;3317;43.994;22.878;2023-04-23T05:58:45;101155.31;;;14.88;59.89
6567;BME280;3317;43.994;22.878;2023-04-23T06:01:12;101161.25;;;15.00;59.58
6567;BME280;3317;43.994;22.878;2023-04-23T06:03:39;101155.13;;;15.06;59.27
6567;BME280;3317;43.994;22.878;2023-04-23T06:06:09;101113.84;;;14.93;59.04
6567;BME280;3317;43.994;22.878;2023-04-23T06:08:37;101142.44;;;15.22;58.51
6567;BME280;3317;43.994;22.878;2023-04-23T06:11:04;101148.22;;;15.27;58.86
6567;BME280;3317;43.994;22.878;2023-04-23T06:13:32;101145.84;;;15.32;59.02
6567;BME280;3317;43.994;22.878;2023-04-23T06:16:06;101121.09;;;15.26;59.17
6567;BME280;3317;43.994;22.878;2023-04-23T06:18:33;101140.00;;;15.44;59.31
6567;BME280;3317;43.994;22.878;2023-04-23T06:21:00;101145.25;;;15.54;59.24
6567;BME280;3317;43.994;22.878;2023-04-23T06:23:28;101141.25;;;15.65;58.85
6567;BME280;3317;43.994;22.878;2023-04-23T06:25:55;101142.25;;;15.72;59.13
6567;BME280;3317;43.994;22.878;2023-04-23T06:28:22;101139.13;;;15.83;58.43
6567;BME280;3317;43.994;22.878;2023-04-23T06:30:49;101139.09;;;15.91;58.50
6567;BME280;3317;43.994;22.878;2023-04-23T06:33:18;101134.75;;;16.05;58.21
6567;BME280;3317;43.994;22.878;2023-04-23T06:35:44;101140.53;;;16.11;57.36
6567;BME280;3317;43.994;22.878;2023-04-23T06:38:12;101133.16;;;16.19;57.31
6567;BME280;3317;43.994;22.878;2023-04-23T06:40:40;101118.91;;;16.24;57.06
6567;BME280;3317;43.994;22.878;2023-04-23T06:43:07;101128.16;;;16.46;57.34
6567;BME280;3317;43.994;22.878;2023-04-23T06:45:34;101134.75;;;16.75;57.19
6567;BME280;3317;43.994;22.878;2023-04-23T06:48:01;101126.66;;;16.97;56.37
6567;BME280;3317;43.994;22.878;2023-04-23T06:50:29;101133.69;;;17.15;55.83
6567;BME280;3317;43.994;22.878;2023-04-23T06:52:56;101140.59;;;17.41;57.09
6567;BME280;3317;43.994;22.878;2023-04-23T06:55:23;101135.69;;;17.51;55.98
6567;BME280;3317;43.994;22.878;2023-04-23T06:57:51;101116.00;;;17.63;56.10
6567;BME280;3317;43.994;22.878;2023-04-23T07:00:19;101124.56;;;17.90;54.63
6567;BME280;3317;43.994;22.878;2023-04-23T07:02:46;101128.50;;;18.02;53.84
6567;BME280;3317;43.994;22.878;2023-04-23T07:05:14;101112.78;;;18.11;53.75
6567;BME280;3317;43.994;22.878;2023-04-23T07:07:42;101127.28;;;18.48;53.59
6567;BME280;3317;43.994;22.878;2023-04-23T07:10:10;101114.09;;;18.58;52.41
6567;BME280;3317;43.994;22.878;2023-04-23T07:12:38;101133.44;;;19.00;51.77
6567;BME280;3317;43.994;22.878;2023-04-23T07:15:06;101128.25;;;19.12;49.98
6567;BME280;3317;43.994;22.878;2023-04-23T07:17:34;101134.94;;;19.38;50.19
6567;BME280;3317;43.994;22.878;2023-04-23T07:20:01;101125.31;;;19.56;49.09
6567;BME280;3317;43.994;22.878;2023-04-23T07:22:31;101125.75;;;19.60;47.00
6567;BME280;3317;43.994;22.878;2023-04-23T07:25:00;101123.84;;;19.67;47.45
6567;BME280;3317;43.994;22.878;2023-04-23T07:27:28;101110.56;;;19.70;47.36
6567;BME280;3317;43.994;22.878;2023-04-23T07:29:56;101123.25;;;19.72;47.37
6567;BME280;3317;43.994;22.878;2023-04-23T07:32:23;101116.84;;;19.58;47.67
6567;BME280;3317;43.994;22.878;2023-04-23T07:34:53;101121.31;;;19.59;48.12
6567;BME280;3317;43.994;22.878;2023-04-23T07:37:20;101087.03;;;19.61;49.21
6567;BME280;3317;43.994;22.878;2023-04-23T07:39:47;101103.66;;;19.88;48.38
6567;BME280;3317;43.994;22.878;2023-04-23T07:42:16;101104.38;;;20.24;47.77
6567;BME280;3317;43.994;22.878;2023-04-23T07:44:43;101104.81;;;20.34;45.89
6567;BME280;3317;43.994;22.878;2023-04-23T07:47:09;101103.34;;;20.38;46.11
6567;BME280;3317;43.994;22.878;2023-04-23T07:49:36;101106.28;;;20.30;46.51
6567;BME280;3317;43.994;22.878;2023-04-23T07:52:03;101113.22;;;20.06;46.56
6567;BME280;3317;43.994;22.878;2023-04-23T07:54:30;101107.94;;;20.04;46.95
6567;BME280;3317;43.994;22.878;2023-04-23T07:56:57;101113.44;;;20.04;47.04
6567;BME280;3317;43.994;22.878;2023-04-23T07:59:26;101107.47;;;19.94;47.62
6567;BME280;3317;43.994;22.878;2023-04-23T08:01:52;101129.72;;;19.99;47.98
6567;BME280;3317;43.994;22.878;2023-04-23T08:04:19;101114.94;;;20.20;48.14
6567;BME280;3317;43.994;22.878;2023-04-23T08:06:46;101116.25;;;20.58;48.25
6567;BME280;3317;43.994;22.878;2023-04-23T08:09:13;101109.03;;;20.71;46.48
6567;BME280;3317;43.994;22.878;2023-04-23T08:11:40;101106.09;;;20.65;45.50
6567;BME280;3317;43.994;22.878;2023-04-23T08:14:07;101105.66;;;20.55;45.95
6567;BME280;3317;43.994;22.878;2023-04-23T08:16:36;101095.72;;;20.61;46.52
6567;BME280;3317;43.994;22.878;2023-04-23T08:19:03;101100.56;;;20.79;46.10
6567;BME280;3317;43.994;22.878;2023-04-23T08:21:30;101098.28;;;20.89;45.45
6567;BME280;3317;43.994;22.878;2023-04-23T08:23:57;101106.09;;;20.99;46.12
6567;BME280;3317;43.994;22.878;2023-04-23T08:26:24;101093.38;;;20.98;44.94
6567;BME280;3317;43.994;22.878;2023-04-23T08:28:52;101097.41;;;20.89;44.57
6567;BME280;3317;43.994;22.878;2023-04-23T08:31:18;101098.47;;;20.88;44.98
6567;BME280;3317;43.994;22.878;2023-04-23T08:33:47;101099.25;;;21.22;45.95
6567;BME280;3317;43.994;22.878;2023-04-23T08:36:15;101094.09;;;21.46;44.54
6567;BME280;3317;43.994;22.878;2023-04-23T08:38:42;101095.91;;;21.65;43.37
6567;BME280;3317;43.994;22.878;2023-04-23T08:41:10;101088.91;;;21.76;43.62
6567;BME280;3317;43.994;22.878;2023-04-23T08:43:43;101086.06;;;21.90;42.93
6567;BME280;3317;43.994;22.878;2023-04-23T08:46:13;101087.50;;;21.92;42.35
6567;BME280;3317;43.994;22.878;2023-04-23T08:48:40;101082.41;;;21.96;42.07
6567;BME280;3317;43.994;22.878;2023-04-23T08:51:12;101080.28;;;21.98;41.89
6567;BME280;3317;43.994;22.878;2023-04-23T08:53:43;101080.13;;;22.18;42.16
6567;BME280;3317;43.994;22.878;2023-04-23T08:56:12;101060.53;;;22.27;42.59
6567;BME280;3317;43.994;22.878;2023-04-23T08:58:40;101074.72;;;22.62;42.51
6567;BME280;3317;43.994;22.878;2023-04-23T09:01:07;101070.47;;;22.85;42.14
6567;BME280;3317;43.994;22.878;2023-04-23T09:03:35;101058.13;;;22.88;40.79
6567;BME280;3317;43.994;22.878;2023-04-23T09:06:04;101063.09;;;23.16;40.69
6567;BME280;3317;43.994;22.878;2023-04-23T09:08:32;101061.81;;;23.00;39.18
6567;BME280;3317;43.994;22.878;2023-04-23T09:11:01;101062.53;;;22.70;39.95
6567;BME280;3317;43.994;22.878;2023-04-23T09:13:29;101063.84;;;22.68;40.03
6567;BME280;3317;43.994;22.878;2023-04-23T09:15:57;101057.56;;;22.79;40.59
6567;BME280;3317;43.994;22.878;2023-04-23T09:18:24;101061.31;;;22.85;39.98
6567;BME280;3317;43.994;22.878;2023-04-23T09:20:51;101056.13;;;22.95;40.65
6567;BME280;3317;43.994;22.878;2023-04-23T09:23:20;101058.72;;;23.09;39.88
6567;BME280;3317;43.994;22.878;2023-04-23T09:25:49;101055.72;;;22.91;38.49
6567;BME280;3317;43.994;22.878;2023-04-23T09:28:17;101053.81;;;22.92;38.99
6567;BME280;3317;43.994;22.878;2023-04-23T09:30:44;101060.16;;;22.74;38.26
6567;BME280;3317;43.994;22.878;2023-04-23T09:33:12;101044.19;;;22.57;38.97
6567;BME280;3317;43.994;22.878;2023-04-23T09:35:39;101047.66;;;22.46;39.30
6567;BME280;3317;43.994;22.878;2023-04-23T09:38:08;101042.25;;;22.58;39.71
6567;BME280;3317;43.994;22.878;2023-04-23T09:40:35;101027.88;;;22.49;39.15
6567;BME280;3317;43.994;22.878;2023-04-23T09:43:04;101031.56;;;22.87;39.79
6567;BME280;3317;43.994;22.878;2023-04-23T09:45:32;101029.81;;;22.92;38.38
6567;BME280;3317;43.994;22.878;2023-04-23T09:48:00;101020.47;;;23.24;39.02
6567;BME280;3317;43.994;22.878;2023-04-23T09:50:32;101020.91;;;23.58;38.02
6567;BME280;3317;43.994;22.878;2023-04-23T09:52:59;101022.50;;;23.66;37.55
6567;BME280;3317;43.994;22.878;2023-04-23T09:55:28;101002.50;;;23.83;37.79
6567;BME280;3317;43.994;22.878;2023-04-23T09:57:55;101004.19;;;23.84;36.96
6567;BME280;3317;43.994;22.878;2023-04-23T10:00:23;101009.06;;;23.70;37.14
6567;BME280;3317;43.994;22.878;2023-04-23T10:02:55;100990.19;;;23.36;37.37
6567;BME280;3317;43.994;22.878;2023-04-23T10:05:21;101013.50;;;23.40;38.09
6567;BME280;3317;43.994;22.878;2023-04-23T10:07:48;100991.47;;;23.64;37.86
6567;BME280;3317;43.994;22.878;2023-04-23T10:10:16;100966.03;;;23.86;36.73
6567;BME280;3317;43.994;22.878;2023-04-23T10:12:44;100996.19;;;23.63;35.42
6567;BME280;3317;43.994;22.878;2023-04-23T10:15:12;100979.06;;;23.55;35.30
6567;BME280;3317;43.994;22.878;2023-04-23T10:17:41;100977.97;;;23.56;35.91
6567;BME280;3317;43.994;22.878;2023-04-23T10:20:09;100970.31;;;23.70;36.48
6567;BME280;3317;43.994;22.878;2023-04-23T10:22:38;100969.47;;;23.69;35.42
6567;BME280;3317;43.994;22.878;2023-04-23T10:25:09;100973.88;;;23.46;35.33
6567;BME280;3317;43.994;22.878;2023-04-23T10:27:38;100959.25;;;23.27;35.00
6567;BME280;3317;43.994;22.878;2023-04-23T10:30:07;100956.47;;;23.09;35.46
6567;BME280;3317;43.994;22.878;2023-04-23T10:32:34;100957.69;;;23.31;35.97
6567;BME280;3317;43.994;22.878;2023-04-23T10:35:03;100953.06;;;23.56;35.39
6567;BME280;3317;43.994;22.878;2023-04-23T10:37:31;100887.75;;;23.12;34.91
6567;BME280;3317;43.994;22.878;2023-04-23T10:40:04;100943.09;;;23.55;35.31
6567;BME280;3317;43.994;22.878;2023-04-23T10:42:36;100945.25;;;23.53;35.65
6567;BME280;3317;43.994;22.878;2023-04-23T10:45:11;100943.03;;;23.31;35.47
6567;BME280;3317;43.994;22.878;2023-04-23T10:47:41;100938.56;;;23.30;36.22
6567;BME280;3317;43.994;22.878;2023-04-23T10:50:22;100932.94;;;23.37;36.02
6567;BME280;3317;43.994;22.878;2023-04-23T10:52:50;100932.09;;;23.36;36.17
6567;BME280;3317;43.994;22.878;2023-04-23T10:55:21;100930.59;;;23.21;36.57
6567;BME280;3317;43.994;22.878;2023-04-23T10:58:00;100931.59;;;23.09;36.95
6567;BME280;3317;43.994;22.878;2023-04-23T11:00:28;100931.75;;;23.14;36.64
6567;BME280;3317;43.994;22.878;2023-04-23T11:02:56;100920.69;;;23.14;36.60
6567;BME280;3317;43.994;22.878;2023-04-23T11:05:24;100917.38;;;23.24;36.31
6567;BME280;3317;43.994;22.878;2023-04-23T11:08:05;100916.00;;;23.33;35.97
6567;BME280;3317;43.994;22.878;2023-04-23T11:10:32;100901.34;;;23.14;34.17
6567;BME280;3317;43.994;22.878;2023-04-23T11:13:21;100904.56;;;23.11;35.33
6567;BME280;3317;43.994;22.878;2023-04-23T11:16:14;100913.84;;;23.16;36.00
6567;BME280;3317;43.994;22.878;2023-04-23T11:19:00;100907.78;;;23.26;34.92
6567;BME280;3317;43.994;22.878;2023-04-23T11:22:02;100905.75;;;23.33;35.39
6567;BME280;3317;43.994;22.878;2023-04-23T11:24:31;100887.97;;;23.29;35.50
6567;BME280;3317;43.994;22.878;2023-04-23T11:26:59;100905.72;;;23.52;35.03
6567;BME280;3317;43.994;22.878;2023-04-23T11:29:27;100902.13;;;23.63;35.08
6567;BME280;3317;43.994;22.878;2023-04-23T11:31:57;100889.75;;;23.90;35.09
6567;BME280;3317;43.994;22.878;2023-04-23T11:34:24;100895.41;;;23.95;32.71
6567;BME280;3317;43.994;22.878;2023-04-23T11:36:52;100897.13;;;24.08;32.86
6567;BME280;3317;43.994;22.878;2023-04-23T11:39:21;100884.25;;;24.26;32.64
6567;BME280;3317;43.994;22.878;2023-04-23T11:41:50;100885.06;;;24.38;32.98
6567;BME280;3317;43.994;22.878;2023-04-23T11:44:18;100887.50;;;24.23;32.98
6567;BME280;3317;43.994;22.878;2023-04-23T11:46:46;100889.63;;;23.73;32.62
6567;BME280;3317;43.994;22.878;2023-04-23T11:49:14;100888.31;;;23.75;32.59
6567;BME280;3317;43.994;22.878;2023-04-23T11:51:41;100873.00;;;23.61;33.38
6567;BME280;3317;43.994;22.878;2023-04-23T11:54:09;100872.66;;;23.69;33.57
6567;BME280;3317;43.994;22.878;2023-04-23T11:56:38;100872.75;;;23.62;33.46
6567;BME280;3317;43.994;22.878;2023-04-23T11:59:05;100853.50;;;23.56;33.54
6567;BME280;3317;43.994;22.878;2023-04-23T12:01:42;100862.22;;;23.29;33.20
6567;BME280;3317;43.994;22.878;2023-04-23T12:04:11;100846.28;;;23.43;33.17
6567;BME280;3317;43.994;22.878;2023-04-23T12:06:40;100854.09;;;23.34;33.69
6567;BME280;3317;43.994;22.878;2023-04-23T12:09:08;100846.78;;;23.40;34.15
6567;BME280;3317;43.994;22.878;2023-04-23T12:11:37;100849.66;;;23.45;33.98
6567;BME280;3317;43.994;22.878;2023-04-23T12:14:05;100848.94;;;23.07;33.44
6567;BME280;3317;43.994;22.878;2023-04-23T12:16:37;100838.03;;;23.24;34.47
6567;BME280;3317;43.994;22.878;2023-04-23T12:19:07;100831.38;;;23.32;33.21
6567;BME280;3317;43.994;22.878;2023-04-23T12:21:46;100824.38;;;23.29;33.45
6567;BME280;3317;43.994;22.878;2023-04-23T12:24:13;100820.91;;;23.46;32.79
6567;BME280;3317;43.994;22.878;2023-04-23T12:26:42;100823.69;;;23.46;32.84
6567;BME280;3317;43.994;22.878;2023-04-23T12:29:11;100813.47;;;23.58;32.67
6567;BME280;3317;43.994;22.878;2023-04-23T12:31:39;100814.56;;;23.69;32.89
6567;BME280;3317;43.994;22.878;2023-04-23T12:34:07;100757.31;;;23.46;32.76
6567;BME280;3317;43.994;22.878;2023-04-23T12:36:36;100790.97;;;23.79;32.24
6567;BME280;3317;43.994;22.878;2023-04-23T12:39:23;100798.78;;;23.82;32.00
6567;BME280;3317;43.994;22.878;2023-04-23T12:41:52;100752.75;;;23.52;31.45
6567;BME280;3317;43.994;22.878;2023-04-23T12:44:20;100794.00;;;23.53;31.98
6567;BME280;3317;43.994;22.878;2023-04-23T12:46:54;100784.38;;;23.56;32.23
6567;BME280;3317;43.994;22.878;2023-04-23T12:49:21;100782.94;;;23.53;32.67
6567;BME280;3317;43.994;22.878;2023-04-23T12:51:48;100769.56;;;23.38;32.83
6567;BME280;3317;43.994;22.878;2023-04-23T12:54:15;100771.56;;;23.07;32.55
6567;BME280;3317;43.994;22.878;2023-04-23T12:56:42;100778.97;;;22.95;33.46
6567;BME280;3317;43.994;22.878;2023-04-23T12:59:10;100773.66;;;22.81;32.91
6567;BME280;3317;43.994;22.878;2023-04-23T13:01:37;100781.16;;;22.74;33.18
6567;BME280;3317;43.994;22.878;2023-04-23T13:04:04;100764.91;;;22.65;33.12
6567;BME280;3317;43.994;22.878;2023-04-23T13:06:31;100768.31;;;22.68;33.44